Marshalls Creek, Pennsylvania
Current Conditions -  °F | °C
As of 12:53 PM on Friday 19 Dec 2014 (Local Time) from KMPO Reporting Station
Overcast Overcast  
Wind Chill: 14°   Ceiling: 1600
Heat Index: 26°   Visibility: 10mi
Dew Point: 18°   Wind: 16mph
Humidity: 71%   Direction: 330°NNW
Pressure: 29.97"   Gusts: 23mph
Location:  41.04°N, 75.13°W
Report Text: KMPO 191753Z AUTO 33014G20KT 10SM OVC016 M03/M08 A2997 RMK AO2 PK WND 33026/1711 SLP174 T10331078 11028 21033 58009
Loading
Personal Weather Stations






























Interactive Weather Map New forecast layout! Learn more

10-Day Weather Forecast

Advertisements
Track Severe Weather on mobile